createdAt,value
2023-04-25T00:02:10.124Z,96.54
2023-04-25T00:04:39.666Z,97.42
2023-04-25T00:07:06.824Z,97.50
2023-04-25T00:09:33.755Z,97.07
2023-04-25T00:12:00.582Z,96.29
2023-04-25T00:14:28.995Z,96.50
2023-04-25T00:16:56.107Z,96.40
2023-04-25T00:19:23.158Z,96.25
2023-04-25T00:21:50.356Z,96.40
2023-04-25T00:24:17.393Z,96.96
2023-04-25T00:26:44.248Z,97.69
2023-04-25T00:29:11.551Z,97.55
2023-04-25T00:31:41.484Z,97.76
2023-04-25T00:34:09.572Z,99.58
2023-04-25T00:36:36.395Z,100.00
2023-04-25T00:39:04.064Z,100.00
2023-04-25T00:41:31.724Z,100.00
2023-04-25T00:43:59.205Z,100.00
2023-04-25T00:46:26.001Z,100.00
2023-04-25T00:48:52.943Z,100.00
2023-04-25T00:51:21.853Z,100.00
2023-04-25T00:53:51.557Z,100.00
2023-04-25T00:56:19.059Z,100.00
2023-04-25T00:58:45.980Z,100.00
2023-04-25T01:01:13.164Z,100.00
2023-04-25T01:03:44.225Z,100.00
2023-04-25T01:06:11.921Z,100.00
2023-04-25T01:08:40.121Z,100.00
2023-04-25T01:11:07.335Z,100.00
2023-04-25T01:13:34.897Z,100.00
2023-04-25T01:16:02.671Z,100.00
2023-04-25T01:18:29.767Z,100.00
2023-04-25T01:24:24.938Z,100.00
2023-04-25T01:26:52.136Z,100.00
2023-04-25T01:29:19.840Z,100.00
2023-04-25T01:31:47.346Z,100.00
2023-04-25T01:34:14.561Z,99.89
2023-04-25T01:36:41.802Z,100.00
2023-04-25T01:39:09.040Z,100.00
2023-04-25T01:41:36.132Z,100.00
2023-04-25T01:44:03.146Z,100.00
2023-04-25T01:46:32.022Z,100.00
2023-04-25T01:48:58.997Z,100.00
2023-04-25T01:51:25.901Z,100.00
2023-04-25T01:53:53.085Z,100.00
2023-04-25T01:56:20.305Z,99.97
2023-04-25T01:58:47.215Z,100.00
2023-04-25T02:01:14.274Z,99.17
2023-04-25T02:03:41.528Z,99.01
2023-04-25T02:06:08.561Z,100.00
2023-04-25T02:08:35.448Z,100.00
2023-04-25T02:11:02.302Z,100.00
2023-04-25T02:13:29.143Z,99.56
2023-04-25T02:15:56.153Z,99.82
2023-04-25T02:18:23.025Z,100.00
2023-04-25T02:20:50.117Z,100.00
2023-04-25T02:23:16.824Z,100.00
2023-04-25T02:25:43.605Z,100.00
2023-04-25T02:28:10.651Z,100.00
2023-04-25T02:30:37.664Z,100.00
2023-04-25T02:33:04.455Z,100.00
2023-04-25T02:35:31.231Z,100.00
2023-04-25T02:37:58.613Z,100.00
2023-04-25T02:40:25.336Z,100.00
2023-04-25T02:42:53.028Z,100.00
2023-04-25T02:45:19.787Z,100.00
2023-04-25T02:47:46.557Z,100.00
2023-04-25T02:50:13.665Z,100.00
2023-04-25T02:52:40.414Z,100.00
2023-04-25T02:55:07.677Z,100.00
2023-04-25T02:57:34.511Z,100.00
2023-04-25T03:00:01.344Z,100.00
2023-04-25T03:02:28.256Z,100.00
2023-04-25T03:04:55.249Z,100.00
2023-04-25T03:07:22.087Z,100.00
2023-04-25T03:09:49.049Z,100.00
2023-04-25T03:12:17.174Z,100.00
2023-04-25T03:14:43.892Z,100.00
2023-04-25T03:17:11.653Z,100.00
2023-04-25T03:19:38.464Z,100.00
2023-04-25T03:22:05.293Z,100.00
2023-04-25T03:24:31.999Z,100.00
2023-04-25T03:26:58.723Z,100.00
2023-04-25T03:29:27.745Z,100.00
2023-04-25T03:31:54.629Z,100.00
2023-04-25T03:34:22.691Z,100.00
2023-04-25T03:36:49.516Z,100.00
2023-04-25T03:39:16.442Z,100.00
2023-04-25T03:41:43.265Z,100.00
2023-04-25T03:44:10.403Z,100.00
2023-04-25T03:46:37.244Z,100.00
2023-04-25T03:49:04.013Z,100.00
2023-04-25T03:51:32.191Z,100.00
2023-04-25T03:53:59.875Z,100.00
2023-04-25T03:56:26.821Z,100.00
2023-04-25T03:58:53.866Z,100.00
2023-04-25T04:01:22.103Z,100.00
2023-04-25T04:03:48.925Z,100.00
2023-04-25T04:06:16.479Z,100.00
2023-04-25T04:08:43.524Z,100.00
2023-04-25T04:11:10.440Z,100.00
2023-04-25T04:13:37.242Z,100.00
2023-04-25T04:16:05.627Z,100.00
2023-04-25T04:18:32.712Z,100.00
2023-04-25T04:21:00.034Z,100.00
2023-04-25T04:23:28.487Z,100.00
2023-04-25T04:25:57.699Z,100.00
2023-04-25T04:28:24.947Z,100.00
2023-04-25T04:30:52.496Z,100.00
2023-04-25T04:33:22.705Z,100.00
2023-04-25T04:35:49.983Z,100.00
2023-04-25T04:38:17.188Z,100.00
2023-04-25T04:40:44.440Z,100.00
2023-04-25T04:43:11.813Z,100.00
2023-04-25T04:45:41.876Z,100.00
2023-04-25T04:48:08.733Z,100.00
2023-04-25T04:50:36.908Z,100.00
2023-04-25T04:53:05.606Z,100.00
2023-04-25T04:55:32.409Z,100.00
2023-04-25T04:57:59.220Z,100.00
2023-04-25T05:00:29.128Z,100.00
2023-04-25T05:02:57.416Z,100.00
2023-04-25T05:05:24.648Z,100.00
2023-04-25T05:07:51.433Z,100.00
2023-04-25T05:10:19.733Z,100.00
2023-04-25T05:12:46.723Z,100.00
2023-04-25T05:15:13.520Z,100.00
2023-04-25T05:17:41.018Z,100.00
2023-04-25T05:20:10.312Z,100.00
2023-04-25T05:22:37.345Z,100.00
2023-04-25T05:25:05.005Z,100.00
2023-04-25T05:27:31.802Z,100.00
2023-04-25T05:29:58.607Z,100.00
2023-04-25T05:32:26.675Z,100.00
2023-04-25T05:34:54.072Z,100.00
2023-04-25T05:37:20.860Z,100.00
2023-04-25T05:39:47.834Z,100.00
2023-04-25T05:42:14.636Z,100.00
2023-04-25T05:44:41.399Z,100.00
2023-04-25T05:47:08.180Z,100.00
2023-04-25T05:49:36.028Z,100.00
2023-04-25T05:52:02.784Z,100.00
2023-04-25T05:54:30.362Z,100.00
2023-04-25T05:57:03.698Z,100.00
2023-04-25T05:59:31.592Z,100.00
2023-04-25T06:01:59.073Z,100.00
2023-04-25T06:04:27.090Z,100.00
2023-04-25T06:06:54.085Z,100.00
2023-04-25T06:09:22.380Z,100.00
2023-04-25T06:11:49.111Z,100.00
2023-04-25T06:14:15.870Z,100.00
2023-04-25T06:16:42.741Z,100.00
2023-04-25T06:19:09.819Z,100.00
2023-04-25T06:21:37.316Z,100.00
2023-04-25T06:24:05.378Z,100.00
2023-04-25T06:26:32.572Z,100.00
2023-04-25T06:29:00.031Z,98.11
2023-04-25T06:31:27.456Z,97.71
2023-04-25T06:33:56.124Z,98.52
2023-04-25T06:36:27.149Z,95.95
2023-04-25T06:38:54.279Z,95.73
2023-04-25T06:41:22.211Z,95.65
2023-04-25T06:43:48.963Z,95.20
2023-04-25T06:46:15.949Z,95.38
2023-04-25T06:48:42.980Z,96.22
2023-04-25T06:51:09.699Z,96.17
2023-04-25T06:53:36.870Z,94.58
2023-04-25T06:56:04.406Z,94.17
2023-04-25T06:58:31.738Z,93.93
2023-04-25T07:00:59.418Z,94.76
2023-04-25T07:03:26.551Z,95.35
2023-04-25T07:05:53.489Z,95.20
2023-04-25T07:08:21.072Z,94.71
2023-04-25T07:10:49.603Z,95.12
2023-04-25T07:13:16.875Z,95.47
2023-04-25T07:15:44.987Z,96.01
2023-04-25T07:18:13.103Z,95.37
2023-04-25T07:20:40.090Z,96.18
2023-04-25T07:23:07.019Z,96.40
2023-04-25T07:25:33.896Z,96.50
2023-04-25T07:28:01.351Z,95.64
2023-04-25T07:30:28.417Z,95.40
2023-04-25T07:32:55.983Z,96.77
2023-04-25T07:35:22.958Z,95.75
2023-04-25T07:37:49.804Z,94.96
2023-04-25T07:40:17.781Z,94.93
2023-04-25T07:42:44.567Z,94.92
2023-04-25T07:45:12.475Z,94.43
2023-04-25T07:47:39.976Z,94.76
2023-04-25T07:50:08.096Z,94.89
2023-04-25T07:52:34.953Z,95.30
2023-04-25T07:55:01.873Z,95.75
2023-04-25T07:57:28.866Z,94.91
2023-04-25T07:59:55.659Z,94.93
2023-04-25T08:02:22.416Z,95.00
2023-04-25T08:04:51.012Z,94.93
2023-04-25T08:07:18.185Z,94.55
2023-04-25T08:09:45.116Z,93.22
2023-04-25T08:12:12.375Z,93.49
2023-04-25T08:14:41.131Z,93.59
2023-04-25T08:17:07.958Z,94.37
2023-04-25T08:19:34.727Z,94.52
2023-04-25T08:22:01.600Z,94.01
2023-04-25T08:24:28.947Z,92.25
2023-04-25T08:26:56.799Z,92.32
2023-04-25T08:29:25.396Z,89.75
2023-04-25T08:31:54.075Z,91.93
2023-04-25T08:34:22.254Z,88.71
2023-04-25T08:36:49.317Z,87.78
2023-04-25T08:39:16.175Z,89.69
2023-04-25T08:41:43.194Z,89.09
2023-04-25T08:44:12.767Z,87.75
2023-04-25T08:46:43.585Z,86.99
2023-04-25T08:49:10.618Z,86.66
2023-04-25T08:51:46.702Z,86.62
2023-04-25T08:56:47.032Z,86.69
2023-04-25T08:59:14.029Z,85.08
2023-04-25T09:01:41.395Z,84.59
2023-04-25T09:04:08.604Z,84.15
2023-04-25T09:06:36.465Z,83.89
2023-04-25T09:09:06.011Z,83.89
2023-04-25T09:11:34.106Z,80.66
2023-04-25T09:14:22.119Z,82.46
2023-04-25T09:16:58.935Z,81.41
2023-04-25T09:19:39.825Z,79.42
2023-04-25T09:22:08.540Z,76.04
2023-04-25T09:24:47.265Z,75.79
2023-04-25T09:27:21.183Z,73.97
2023-04-25T09:29:48.030Z,70.81
2023-04-25T09:32:20.981Z,69.67
2023-04-25T09:34:53.806Z,70.44
2023-04-25T09:37:28.398Z,69.71
2023-04-25T09:40:06.811Z,69.36
2023-04-25T09:42:35.890Z,71.01
2023-04-25T09:45:03.547Z,68.38
2023-04-25T09:47:31.058Z,68.15
2023-04-25T09:49:57.879Z,68.63
2023-04-25T09:52:26.335Z,70.09
2023-04-25T09:54:55.038Z,70.04
2023-04-25T09:57:24.105Z,73.10
2023-04-25T09:59:53.415Z,72.94
2023-04-25T10:02:22.589Z,72.85
2023-04-25T10:04:54.415Z,75.00
2023-04-25T10:07:27.629Z,72.10
2023-04-25T10:10:03.108Z,72.24
2023-04-25T10:12:30.536Z,67.78
2023-04-25T10:14:58.706Z,65.36
2023-04-25T10:17:26.239Z,67.30
2023-04-25T10:19:53.424Z,66.37
2023-04-25T10:22:35.627Z,65.40
2023-04-25T10:25:05.559Z,65.23
2023-04-25T10:27:32.909Z,65.43
2023-04-25T10:30:24.289Z,66.79
2023-04-25T10:32:52.891Z,66.57
2023-04-25T10:35:25.804Z,66.53
2023-04-25T10:38:19.292Z,65.13
2023-04-25T10:41:05.245Z,64.68
2023-04-25T10:43:42.816Z,64.95
2023-04-25T10:46:27.179Z,63.66
2023-04-25T10:48:54.773Z,65.33
2023-04-25T10:51:26.761Z,62.23
2023-04-25T10:54:11.652Z,61.08
2023-04-25T10:56:45.660Z,60.82
2023-04-25T10:59:14.734Z,59.76
2023-04-25T11:01:43.357Z,61.06
2023-04-25T11:04:37.441Z,61.56
2023-04-25T11:07:36.347Z,59.92
2023-04-25T11:10:07.536Z,60.52
2023-04-25T11:12:34.647Z,60.46
2023-04-25T11:15:06.654Z,60.34
2023-04-25T11:17:34.492Z,59.13
2023-04-25T11:20:02.005Z,58.49
2023-04-25T11:22:29.246Z,58.92
2023-04-25T11:24:56.287Z,60.27
2023-04-25T11:27:23.735Z,62.40
2023-04-25T11:29:51.692Z,63.43
2023-04-25T11:32:21.460Z,63.66
2023-04-25T11:34:48.834Z,64.10
2023-04-25T11:37:16.147Z,62.36
2023-04-25T11:39:50.269Z,61.95
2023-04-25T11:42:18.892Z,62.13
2023-04-25T11:44:46.002Z,59.71
2023-04-25T11:47:13.051Z,60.05
2023-04-25T11:49:39.946Z,59.82
2023-04-25T11:52:08.692Z,59.24
2023-04-25T11:54:38.779Z,59.93
2023-04-25T11:57:06.136Z,61.77
2023-04-25T11:59:33.289Z,58.83
2023-04-25T12:02:02.937Z,58.08
2023-04-25T12:04:32.513Z,55.19
2023-04-25T12:07:01.876Z,53.87
2023-04-25T12:09:30.953Z,53.63
2023-04-25T12:12:05.242Z,52.42
2023-04-25T12:14:34.849Z,54.42
2023-04-25T12:17:03.866Z,54.65
2023-04-25T12:19:35.503Z,55.66
2023-04-25T12:22:21.470Z,54.40
2023-04-25T12:24:48.530Z,55.38
2023-04-25T12:27:21.306Z,54.16
2023-04-25T12:29:58.400Z,55.66
2023-04-25T12:32:25.651Z,53.49
2023-04-25T12:34:52.473Z,53.55
2023-04-25T12:37:19.472Z,53.54
2023-04-25T12:39:47.366Z,51.20
2023-04-25T12:42:14.156Z,52.22
2023-04-25T12:44:41.819Z,52.98
2023-04-25T12:47:09.218Z,50.13
2023-04-25T12:49:36.203Z,51.29
2023-04-25T12:52:02.999Z,50.90
2023-04-25T12:54:29.838Z,49.23
2023-04-25T12:56:56.831Z,48.50
2023-04-25T12:59:23.666Z,48.71
2023-04-25T13:01:50.808Z,48.29
2023-04-25T13:04:17.758Z,49.12
2023-04-25T13:06:44.835Z,49.49
2023-04-25T13:09:13.926Z,50.39
2023-04-25T13:11:42.065Z,49.81
2023-04-25T13:14:09.257Z,50.15
2023-04-25T13:16:36.928Z,49.84
2023-04-25T13:19:04.104Z,50.04
2023-04-25T13:21:33.694Z,50.68
2023-04-25T13:24:00.946Z,50.72
2023-04-25T13:26:27.961Z,50.74
2023-04-25T13:28:54.857Z,49.95
2023-04-25T13:31:22.455Z,51.74
2023-04-25T13:33:50.053Z,50.16
2023-04-25T13:36:17.304Z,49.34
2023-04-25T13:38:45.373Z,49.41
2023-04-25T13:41:17.094Z,47.87
2023-04-25T13:43:44.015Z,49.33
2023-04-25T13:46:30.030Z,44.42
2023-04-25T13:49:06.098Z,44.73
2023-04-25T13:51:37.055Z,45.53
2023-04-25T13:54:04.185Z,45.24
2023-04-25T13:56:31.268Z,45.79
2023-04-25T13:58:58.278Z,46.12
2023-04-25T14:01:25.075Z,45.95
2023-04-25T14:03:52.103Z,46.32
2023-04-25T14:06:24.034Z,45.67
2023-04-25T14:08:51.628Z,45.57
2023-04-25T14:11:19.635Z,45.58
2023-04-25T14:13:47.143Z,46.14
2023-04-25T14:16:13.925Z,45.34
2023-04-25T14:18:40.734Z,46.85
2023-04-25T14:21:07.462Z,47.66
2023-04-25T14:23:34.141Z,47.78
2023-04-25T14:26:00.876Z,47.98
2023-04-25T14:28:27.662Z,48.03
2023-04-25T14:30:54.450Z,48.04
2023-04-25T14:33:21.769Z,49.42
2023-04-25T14:35:51.539Z,49.55
2023-04-25T14:38:18.425Z,50.48
2023-04-25T14:40:45.347Z,49.85
2023-04-25T14:43:12.341Z,50.18
2023-04-25T14:45:39.035Z,48.21
2023-04-25T14:48:06.183Z,47.15
2023-04-25T14:50:33.701Z,46.75
2023-04-25T14:53:01.899Z,46.35
2023-04-25T14:55:29.259Z,46.52
2023-04-25T14:57:58.695Z,45.82
2023-04-25T15:00:28.302Z,46.33
2023-04-25T15:03:01.837Z,46.18
2023-04-25T15:05:32.437Z,46.03
2023-04-25T15:07:59.723Z,46.73
2023-04-25T15:10:26.968Z,46.03
2023-04-25T15:12:54.990Z,46.80
2023-04-25T15:15:26.553Z,46.74
2023-04-25T15:17:57.217Z,46.29
2023-04-25T15:20:25.768Z,47.01
2023-04-25T15:22:52.690Z,46.60
2023-04-25T15:25:19.442Z,48.07
2023-04-25T15:27:48.119Z,48.74
2023-04-25T15:30:18.541Z,48.72
2023-04-25T15:32:46.559Z,49.21
2023-04-25T15:35:14.533Z,49.49
2023-04-25T15:37:41.769Z,49.78
2023-04-25T15:40:12.335Z,50.72
2023-04-25T15:42:57.214Z,51.16
2023-04-25T15:45:26.501Z,51.08
2023-04-25T15:47:55.494Z,49.91
2023-04-25T15:50:22.887Z,50.40
2023-04-25T15:52:50.858Z,50.78
2023-04-25T15:55:18.708Z,49.73
2023-04-25T15:57:45.758Z,51.44
2023-04-25T16:00:15.383Z,50.53
2023-04-25T16:02:44.230Z,50.37
2023-04-25T16:05:15.667Z,50.93
2023-04-25T16:07:43.908Z,50.19
2023-04-25T16:10:12.023Z,50.32
2023-04-25T16:12:40.203Z,50.72
2023-04-25T16:15:08.258Z,50.38
2023-04-25T16:17:38.640Z,50.10
2023-04-25T16:20:10.579Z,50.09
2023-04-25T16:22:42.249Z,51.01
2023-04-25T16:25:15.163Z,51.39
2023-04-25T16:27:42.099Z,51.56
2023-04-25T16:30:10.603Z,51.08
2023-04-25T16:32:38.448Z,50.95
2023-04-25T16:35:05.612Z,51.41
2023-04-25T16:37:35.836Z,50.86
2023-04-25T16:40:03.092Z,50.83
2023-04-25T16:42:33.486Z,51.97
2023-04-25T16:45:01.702Z,52.27
2023-04-25T16:47:30.192Z,51.81
2023-04-25T16:49:57.951Z,53.40
2023-04-25T16:52:25.640Z,54.40
2023-04-25T16:54:52.646Z,54.78
2023-04-25T16:57:19.986Z,54.77
2023-04-25T16:59:47.985Z,55.63
2023-04-25T17:02:18.714Z,55.98
2023-04-25T17:04:47.208Z,54.68
2023-04-25T17:07:14.280Z,55.72
2023-04-25T17:09:41.314Z,55.80
2023-04-25T17:12:08.626Z,55.68
2023-04-25T17:14:36.344Z,56.64
2023-04-25T17:17:05.079Z,57.44
2023-04-25T17:19:33.035Z,56.03
2023-04-25T17:22:00.107Z,55.54
2023-04-25T17:24:27.217Z,55.40
2023-04-25T17:26:54.644Z,55.03
2023-04-25T17:29:23.996Z,54.96
2023-04-25T17:31:51.648Z,55.15
2023-04-25T17:34:18.937Z,55.71
2023-04-25T17:36:46.215Z,55.31
2023-04-25T17:39:15.094Z,56.30
2023-04-25T17:41:42.214Z,56.02
2023-04-25T17:44:09.367Z,55.34
2023-04-25T17:46:36.774Z,56.32
2023-04-25T17:49:03.646Z,56.28
2023-04-25T17:51:30.685Z,56.41
2023-04-25T17:53:57.616Z,55.28
2023-04-25T17:56:27.507Z,54.63
2023-04-25T17:58:54.673Z,54.29
2023-04-25T18:01:21.875Z,52.79
2023-04-25T18:03:50.500Z,54.25
2023-04-25T18:06:18.415Z,54.72
2023-04-25T18:08:45.485Z,54.79
2023-04-25T18:11:12.524Z,55.81
2023-04-25T18:13:39.747Z,55.14
2023-04-25T18:16:07.118Z,54.90
2023-04-25T18:18:36.374Z,54.87
2023-04-25T18:21:05.901Z,55.33
2023-04-25T18:23:34.477Z,55.75
2023-04-25T18:26:02.668Z,56.26
2023-04-25T18:28:29.984Z,56.62
2023-04-25T18:30:57.287Z,57.09
2023-04-25T18:33:25.565Z,57.80
2023-04-25T18:38:34.910Z,60.13
2023-04-25T18:41:18.372Z,59.53
2023-04-25T18:43:50.084Z,61.60
2023-04-25T18:46:18.057Z,61.60
2023-04-25T18:48:44.862Z,60.10
2023-04-25T18:51:11.544Z,59.27
2023-04-25T18:53:38.399Z,59.02
2023-04-25T18:56:05.561Z,59.93
2023-04-25T18:58:32.875Z,60.16
2023-04-25T19:01:00.439Z,60.23
2023-04-25T19:03:28.619Z,59.95
2023-04-25T19:05:56.278Z,60.46
2023-04-25T19:08:24.864Z,61.09
2023-04-25T19:10:57.647Z,62.45
2023-04-25T19:13:24.752Z,63.82
2023-04-25T19:15:51.463Z,64.22
2023-04-25T19:18:18.430Z,64.49
2023-04-25T19:20:46.697Z,63.90
2023-04-25T19:23:13.784Z,63.53
2023-04-25T19:25:40.683Z,65.10
2023-04-25T19:28:08.973Z,64.86
2023-04-25T19:30:35.775Z,64.56
2023-04-25T19:33:03.661Z,64.64
2023-04-25T19:35:32.980Z,64.60
2023-04-25T19:37:59.949Z,64.62
2023-04-25T19:40:27.228Z,65.83
2023-04-25T19:42:54.085Z,65.15
2023-04-25T19:45:21.068Z,65.17
2023-04-25T19:47:48.431Z,65.24
2023-04-25T19:50:15.303Z,65.75
2023-04-25T19:52:42.031Z,64.89
2023-04-25T19:55:10.340Z,65.79
2023-04-25T19:57:38.272Z,65.27
2023-04-25T20:00:11.114Z,65.90
2023-04-25T20:02:38.304Z,65.37
2023-04-25T20:05:07.231Z,65.65
2023-04-25T20:07:34.905Z,65.75
2023-04-25T20:10:07.032Z,65.80
2023-04-25T20:12:35.075Z,66.35
2023-04-25T20:15:02.158Z,66.86
2023-04-25T20:17:28.842Z,66.70
2023-04-25T20:19:56.506Z,67.17
2023-04-25T20:22:23.206Z,67.03
2023-04-25T20:24:49.912Z,67.16
2023-04-25T20:27:16.741Z,67.75
2023-04-25T20:29:43.454Z,68.03
2023-04-25T20:32:10.237Z,67.09
2023-04-25T20:34:37.509Z,68.06
2023-04-25T20:37:04.292Z,68.18
2023-04-25T20:39:33.735Z,68.76
2023-04-25T20:42:00.494Z,68.53
2023-04-25T20:44:27.272Z,68.44
2023-04-25T20:46:54.027Z,68.72
2023-04-25T20:49:21.173Z,68.87
2023-04-25T20:51:48.013Z,69.08
2023-04-25T20:54:14.853Z,69.50
2023-04-25T20:56:41.672Z,69.55
2023-04-25T20:59:09.421Z,70.10
2023-04-25T21:01:36.300Z,71.23
2023-04-25T21:04:03.374Z,71.07
2023-04-25T21:06:30.450Z,71.88
2023-04-25T21:08:57.269Z,71.38
2023-04-25T21:11:24.175Z,72.00
2023-04-25T21:13:52.003Z,72.26
2023-04-25T21:16:19.118Z,73.46
2023-04-25T21:18:46.049Z,73.99
2023-04-25T21:21:12.808Z,73.50
2023-04-25T21:23:39.621Z,73.64
2023-04-25T21:26:06.532Z,73.56
2023-04-25T21:28:33.230Z,72.92
2023-04-25T21:31:00.042Z,73.84
2023-04-25T21:33:27.028Z,74.60
2023-04-25T21:35:53.821Z,75.30
2023-04-25T21:38:20.577Z,74.48
2023-04-25T21:40:47.290Z,73.97
2023-04-25T21:43:14.283Z,73.68
2023-04-25T21:46:05.673Z,74.64
2023-04-25T21:48:27.983Z,74.92
2023-04-25T21:50:56.013Z,74.66
2023-04-25T21:53:38.851Z,74.75
2023-04-25T21:56:58.783Z,75.56
2023-04-25T21:59:38.660Z,76.17
2023-04-25T22:02:05.678Z,76.68
2023-04-25T22:04:32.785Z,76.86
2023-04-25T22:06:59.841Z,76.81
2023-04-25T22:09:26.579Z,77.70
2023-04-25T22:11:53.683Z,78.04
2023-04-25T22:14:21.344Z,77.89
2023-04-25T22:16:50.138Z,77.98
2023-04-25T22:19:17.251Z,78.05
2023-04-25T22:21:44.328Z,77.87
2023-04-25T22:24:11.050Z,78.07
2023-04-25T22:26:38.193Z,78.75
2023-04-25T22:29:05.144Z,78.81
2023-04-25T22:31:31.943Z,78.46
2023-04-25T22:33:58.807Z,78.32
2023-04-25T22:36:25.536Z,78.70
2023-04-25T22:38:53.297Z,78.65
2023-04-25T22:41:21.167Z,79.24
2023-04-25T22:43:48.003Z,79.60
2023-04-25T22:46:18.754Z,78.95
2023-04-25T22:48:46.414Z,78.76
2023-04-25T22:51:13.917Z,79.05
2023-04-25T22:53:42.251Z,79.55
2023-04-25T22:56:10.396Z,79.44
2023-04-25T22:58:40.231Z,81.00
2023-04-25T23:01:07.621Z,81.83
2023-04-25T23:03:34.692Z,82.28
2023-04-25T23:06:01.476Z,82.74
2023-04-25T23:08:28.188Z,83.05
2023-04-25T23:10:55.370Z,82.79
2023-04-25T23:13:22.373Z,82.81
2023-04-25T23:15:49.107Z,82.76
2023-04-25T23:18:15.929Z,83.01
2023-04-25T23:20:43.198Z,83.30
2023-04-25T23:23:10.181Z,83.24
2023-04-25T23:25:40.758Z,82.37
2023-04-25T23:28:07.966Z,82.83
2023-04-25T23:30:34.767Z,82.45
2023-04-25T23:33:01.576Z,83.53
2023-04-25T23:35:28.645Z,83.91
2023-04-25T23:37:55.895Z,83.91
2023-04-25T23:40:23.296Z,83.59
2023-04-25T23:42:50.044Z,84.63
2023-04-25T23:45:16.953Z,84.21
2023-04-25T23:47:43.764Z,84.88
2023-04-25T23:50:11.513Z,85.15
2023-04-25T23:52:39.014Z,85.46
2023-04-25T23:55:06.779Z,84.84
2023-04-25T23:57:33.930Z,84.72
